Time;durP1;ratioP1;P1;durP2;ratioP2;P2;SDS_P1;SDS_P2;PMS_P1;PMS_P2;Temp;Humidity;BMP_temperature;BMP_pressure;BME280_temperature;BME280_humidity;BME280_pressure;Samples;Min_cycle;Max_cycle;Signal;HPM_P1;HPM_P2
2023/10/20 00:01:15;;;;;;;;;1.50;1.50;;;;;;;;5079940;28;45349;-79
2023/10/20 00:03:41;;;;;;;;;2.00;2.00;;;;;;;;5080347;28;45500;-80
2023/10/20 00:06:06;;;;;;;;;2.00;2.00;;;;;;;;5078918;27;45633;-79
2023/10/20 00:08:32;;;;;;;;;1.50;1.50;;;;;;;;5080399;28;45443;-80
2023/10/20 00:11:04;;;;;;;;;2.00;2.00;;;;;;;;5079699;28;45220;-80
2023/10/20 00:13:29;;;;;;;;;1.00;1.00;;;;;;;;5080695;28;45503;-80
2023/10/20 00:15:54;;;;;;;;;1.00;1.00;;;;;;;;5079383;28;47195;-79
2023/10/20 00:18:19;;;;;;;;;2.00;1.00;;;;;;;;5080960;28;45205;-80
2023/10/20 00:20:46;;;;;;;;;2.25;2.25;;;;;;;;5080883;28;45534;-79
2023/10/20 00:23:11;;;;;;;;;1.00;1.00;;;;;;;;5080514;28;45178;-80
2023/10/20 00:25:37;;;;;;;;;1.50;1.50;;;;;;;;5080682;28;45343;-80
2023/10/20 00:28:03;;;;;;;;;0.75;0.75;;;;;;;;5079230;28;45303;-81
2023/10/20 00:30:28;;;;;;;;;2.00;2.00;;;;;;;;5098932;27;45342;-82
2023/10/20 00:32:53;;;;;;;;;1.25;1.25;;;;;;;;5101039;27;45429;-82
2023/10/20 00:35:18;;;;;;;;;0.50;0.50;;;;;;;;5100782;27;45669;-82
2023/10/20 00:37:44;;;;;;;;;1.00;1.00;;;;;;;;5099408;27;45365;-83
2023/10/20 00:40:10;;;;;;;;;1.25;1.25;;;;;;;;5101118;27;45437;-83
2023/10/20 00:42:35;;;;;;;;;1.00;0.00;;;;;;;;5100796;27;45393;-82
2023/10/20 00:45:01;;;;;;;;;1.50;1.50;;;;;;;;5100870;27;45277;-82
2023/10/20 00:47:26;;;;;;;;;0.00;0.00;;;;;;;;5099285;27;46250;-82
2023/10/20 00:49:52;;;;;;;;;2.25;2.25;;;;;;;;5099665;27;45326;-82
2023/10/20 00:52:17;;;;;;;;;1.75;1.75;;;;;;;;5098911;27;47195;-82
2023/10/20 00:54:46;;;;;;;;;2.00;2.00;;;;;;;;5100737;27;46350;-82
2023/10/20 00:57:12;;;;;;;;;1.00;1.00;;;;;;;;5100808;27;45238;-83
2023/10/20 00:59:37;;;;;;;;;2.25;2.00;;;;;;;;5099403;27;45303;-83
2023/10/20 01:02:03;;;;;;;;;4.00;3.75;;;;;;;;5105663;27;45941;-85
2023/10/20 01:04:28;;;;;;;;;4.00;4.00;;;;;;;;5107728;27;46559;-84
2023/10/20 01:06:53;;;;;;;;;3.75;3.00;;;;;;;;5102295;27;45319;-83
2023/10/20 01:09:22;;;;;;;;;6.00;4.50;;;;;;;;5102573;27;45334;-83
2023/10/20 01:11:48;;;;;;;;;5.00;5.00;;;;;;;;5100552;27;45348;-82
2023/10/20 01:14:13;;;;;;;;;3.25;3.25;;;;;;;;5101975;27;46128;-81
2023/10/20 01:16:38;;;;;;;;;4.00;4.00;;;;;;;;5098996;27;45352;-81
2023/10/20 01:19:03;;;;;;;;;2.75;2.75;;;;;;;;5099037;27;45430;-79
2023/10/20 01:21:28;;;;;;;;;2.33;2.33;;;;;;;;5098847;27;46922;-80
2023/10/20 01:23:54;;;;;;;;;2.00;2.00;;;;;;;;5100374;27;45267;-80
2023/10/20 01:26:19;;;;;;;;;3.50;3.50;;;;;;;;5100072;27;45274;-79
2023/10/20 01:28:44;;;;;;;;;3.25;3.25;;;;;;;;5096597;27;45202;-79
2023/10/20 01:31:10;;;;;;;;;0.50;0.50;;;;;;;;5079993;28;45342;-78
2023/10/20 01:33:35;;;;;;;;;0.00;0.00;;;;;;;;5078337;28;47511;-78
2023/10/20 01:36:00;;;;;;;;;0.75;0.75;;;;;;;;5078082;28;45937;-79
2023/10/20 01:38:25;;;;;;;;;0.00;0.00;;;;;;;;5079008;28;45484;-78
2023/10/20 01:40:51;;;;;;;;;0.00;0.00;;;;;;;;5077956;28;46431;-79
2023/10/20 01:43:16;;;;;;;;;0.00;0.00;;;;;;;;5077121;28;48437;-79
2023/10/20 01:45:41;;;;;;;;;0.00;0.00;;;;;;;;5078201;28;45287;-79
2023/10/20 01:48:06;;;;;;;;;0.00;0.00;;;;;;;;5079615;28;45579;-80
2023/10/20 01:50:32;;;;;;;;;0.25;0.00;;;;;;;;5077812;28;45953;-79
2023/10/20 01:52:57;;;;;;;;;0.00;0.00;;;;;;;;5079286;28;46488;-80
2023/10/20 01:55:22;;;;;;;;;0.50;0.00;;;;;;;;5079530;28;45219;-80
2023/10/20 01:57:47;;;;;;;;;0.00;0.00;;;;;;;;5078534;28;45303;-79
2023/10/20 02:00:16;;;;;;;;;0.00;0.00;;;;;;;;5078564;28;46041;-80
2023/10/20 02:02:42;;;;;;;;;0.00;0.00;;;;;;;;5080609;28;45431;-79
2023/10/20 02:05:10;;;;;;;;;0.75;0.00;;;;;;;;5078195;28;45366;-79
2023/10/20 02:07:36;;;;;;;;;0.00;0.00;;;;;;;;5079796;28;45295;-79
2023/10/20 02:10:01;;;;;;;;;0.00;0.00;;;;;;;;5081150;28;45467;-79
2023/10/20 02:12:27;;;;;;;;;0.00;0.00;;;;;;;;5079868;27;46531;-79
2023/10/20 02:14:52;;;;;;;;;0.00;0.00;;;;;;;;5078433;28;45251;-79
2023/10/20 02:17:17;;;;;;;;;0.00;0.00;;;;;;;;5080465;28;45219;-79
2023/10/20 02:19:43;;;;;;;;;0.00;0.00;;;;;;;;5081595;28;45481;-79
2023/10/20 02:22:08;;;;;;;;;0.00;0.00;;;;;;;;5086827;27;45330;-80
2023/10/20 02:24:33;;;;;;;;;0.00;0.00;;;;;;;;5086971;27;45343;-80
2023/10/20 02:26:58;;;;;;;;;0.00;0.00;;;;;;;;5086161;27;45314;-80
2023/10/20 02:29:23;;;;;;;;;0.00;0.00;;;;;;;;5087979;28;46075;-80
2023/10/20 02:31:49;;;;;;;;;0.00;0.00;;;;;;;;5082843;28;48522;-79
2023/10/20 02:34:14;;;;;;;;;0.00;0.00;;;;;;;;5086114;28;45401;-80
2023/10/20 02:36:39;;;;;;;;;0.00;0.00;;;;;;;;5085485;28;45323;-80
2023/10/20 02:39:04;;;;;;;;;0.00;0.00;;;;;;;;5085482;28;45412;-80
2023/10/20 02:41:29;;;;;;;;;0.00;0.00;;;;;;;;5082981;28;48281;-79
2023/10/20 02:43:55;;;;;;;;;0.00;0.00;;;;;;;;5083663;28;45484;-79
2023/10/20 02:46:20;;;;;;;;;0.00;0.00;;;;;;;;5082671;28;45364;-79
2023/10/20 02:48:45;;;;;;;;;0.00;0.00;;;;;;;;5084267;28;45505;-79
2023/10/20 02:51:14;;;;;;;;;0.00;0.00;;;;;;;;5083988;28;45400;-79
2023/10/20 02:53:40;;;;;;;;;0.00;0.00;;;;;;;;5082056;28;45294;-79
2023/10/20 02:56:15;;;;;;;;;0.00;0.00;;;;;;;;5082832;28;45377;-80
2023/10/20 02:58:44;;;;;;;;;0.00;0.00;;;;;;;;5083392;28;45660;-79
2023/10/20 03:01:10;;;;;;;;;0.00;0.00;;;;;;;;5082045;28;47307;-79
2023/10/20 03:03:36;;;;;;;;;0.00;0.00;;;;;;;;5082823;28;45346;-79
2023/10/20 03:06:03;;;;;;;;;0.00;0.00;;;;;;;;5080835;28;45530;-79
2023/10/20 03:08:29;;;;;;;;;0.00;0.00;;;;;;;;5080446;28;46068;-79
2023/10/20 03:10:54;;;;;;;;;0.00;0.00;;;;;;;;5082420;28;45187;-79
2023/10/20 03:13:19;;;;;;;;;0.00;0.00;;;;;;;;5080922;28;45263;-79
2023/10/20 03:15:44;;;;;;;;;0.00;0.00;;;;;;;;5080731;28;45243;-79
2023/10/20 03:18:13;;;;;;;;;0.00;0.00;;;;;;;;5080486;28;45901;-79
2023/10/20 03:20:38;;;;;;;;;0.00;0.00;;;;;;;;5079343;28;47499;-79
2023/10/20 03:23:03;;;;;;;;;0.00;0.00;;;;;;;;5080269;28;45409;-79
2023/10/20 03:25:30;;;;;;;;;0.00;0.00;;;;;;;;5081842;28;45510;-79
2023/10/20 03:27:56;;;;;;;;;0.00;0.00;;;;;;;;5082902;28;45397;-80
2023/10/20 03:30:21;;;;;;;;;0.00;0.00;;;;;;;;5099325;27;45540;-79
2023/10/20 03:32:48;;;;;;;;;0.00;0.00;;;;;;;;5103544;27;45339;-79
2023/10/20 03:35:13;;;;;;;;;0.00;0.00;;;;;;;;5102643;27;45282;-79
2023/10/20 03:37:38;;;;;;;;;0.00;0.00;;;;;;;;5102436;27;45211;-79
2023/10/20 03:40:04;;;;;;;;;0.00;0.00;;;;;;;;5100505;27;48231;-79
2023/10/20 03:42:30;;;;;;;;;0.00;0.00;;;;;;;;5102280;27;45152;-79
2023/10/20 03:44:56;;;;;;;;;0.00;0.00;;;;;;;;5101155;27;45231;-79
2023/10/20 03:47:24;;;;;;;;;0.00;0.00;;;;;;;;5101716;27;45421;-79
2023/10/20 03:49:51;;;;;;;;;0.00;0.00;;;;;;;;5100497;27;48298;-79
2023/10/20 03:52:18;;;;;;;;;0.00;0.00;;;;;;;;5101471;27;45522;-79
2023/10/20 03:54:45;;;;;;;;;0.00;0.00;;;;;;;;5101868;27;45461;-79
2023/10/20 03:57:15;;;;;;;;;0.00;0.00;;;;;;;;5100316;27;46525;-79
2023/10/20 03:59:41;;;;;;;;;0.00;0.00;;;;;;;;5100052;27;48404;-79
2023/10/20 04:02:07;;;;;;;;;0.00;0.00;;;;;;;;5101686;27;45376;-80
2023/10/20 04:04:32;;;;;;;;;0.00;0.00;;;;;;;;5101611;27;45368;-79
2023/10/20 04:06:58;;;;;;;;;0.00;0.00;;;;;;;;5099838;27;45721;-80
2023/10/20 04:09:23;;;;;;;;;0.00;0.00;;;;;;;;5096331;27;48609;-80
2023/10/20 04:11:48;;;;;;;;;0.00;0.00;;;;;;;;5080796;28;45267;-80
2023/10/20 04:14:13;;;;;;;;;0.00;0.00;;;;;;;;5080488;28;45258;-80
2023/10/20 04:16:42;;;;;;;;;0.00;0.00;;;;;;;;5079111;28;46077;-80
2023/10/20 04:19:09;;;;;;;;;0.00;0.00;;;;;;;;5079137;28;48646;-79
2023/10/20 04:21:35;;;;;;;;;0.00;0.00;;;;;;;;5081049;28;45414;-79
2023/10/20 04:24:01;;;;;;;;;0.25;0.00;;;;;;;;5081740;28;45293;-79
2023/10/20 04:26:26;;;;;;;;;0.25;0.25;;;;;;;;5081512;28;46326;-79
2023/10/20 05:01:16;;;;;;;;;0.00;0.00;;;;;;;;5106666;27;45278;-79
2023/10/20 05:03:49;;;;;;;;;0.00;0.00;;;;;;;;5102507;27;46040;-79
2023/10/20 05:06:24;;;;;;;;;0.00;0.00;;;;;;;;5079865;28;45451;-79
2023/10/20 05:08:49;;;;;;;;;0.00;0.00;;;;;;;;5084635;28;46201;-79
2023/10/20 05:11:15;;;;;;;;;0.00;0.00;;;;;;;;5084371;28;45907;-79
2023/10/20 05:13:40;;;;;;;;;0.00;0.00;;;;;;;;5085492;28;45255;-80
2023/10/20 05:16:06;;;;;;;;;0.00;0.00;;;;;;;;5083986;28;45833;-80
2023/10/20 05:18:32;;;;;;;;;0.00;0.00;;;;;;;;5087022;28;45265;-79
2023/10/20 05:21:02;;;;;;;;;1.00;0.00;;;;;;;;5082734;28;46455;-79
2023/10/20 05:23:27;;;;;;;;;0.75;0.00;;;;;;;;5084412;28;45275;-81
2023/10/20 05:25:53;;;;;;;;;0.25;0.00;;;;;;;;5084403;28;45416;-81
2023/10/20 05:28:18;;;;;;;;;0.25;0.00;;;;;;;;5083462;27;45556;-82
2023/10/20 05:30:44;;;;;;;;;0.00;0.00;;;;;;;;5101512;27;45230;-81
2023/10/20 05:33:09;;;;;;;;;0.00;0.00;;;;;;;;5100516;27;45325;-81
2023/10/20 05:35:34;;;;;;;;;1.00;1.00;;;;;;;;5100341;27;45439;-81
2023/10/20 05:37:59;;;;;;;;;0.75;0.00;;;;;;;;5099690;27;45484;-81
2023/10/20 05:40:25;;;;;;;;;0.00;0.00;;;;;;;;5100639;27;45463;-81
2023/10/20 05:42:50;;;;;;;;;0.50;0.50;;;;;;;;5099876;27;45220;-79
2023/10/20 05:45:20;;;;;;;;;0.00;0.00;;;;;;;;5079836;27;45460;-80
2023/10/20 05:47:46;;;;;;;;;1.00;1.00;;;;;;;;5078701;28;46153;-80
2023/10/20 05:50:11;;;;;;;;;0.00;0.00;;;;;;;;5077468;28;48194;-82
2023/10/20 05:52:37;;;;;;;;;0.50;0.50;;;;;;;;5076271;28;45953;-80
2023/10/20 05:55:03;;;;;;;;;0.75;0.75;;;;;;;;5078709;28;45293;-83
2023/10/20 05:57:29;;;;;;;;;0.00;0.00;;;;;;;;5059261;28;45756;-82
2023/10/20 05:59:54;;;;;;;;;0.75;0.75;;;;;;;;5067343;28;48237;-81
2023/10/20 06:02:20;;;;;;;;;2.50;0.00;;;;;;;;5063882;28;45241;-81
2023/10/20 06:04:45;;;;;;;;;2.00;2.00;;;;;;;;5081802;28;45349;-80
2023/10/20 06:07:11;;;;;;;;;1.00;1.00;;;;;;;;5081859;28;47299;-83
2023/10/20 06:09:36;;;;;;;;;1.00;1.00;;;;;;;;5083601;28;45335;-83
2023/10/20 06:12:03;;;;;;;;;0.75;0.75;;;;;;;;5083168;28;45294;-83
2023/10/20 06:14:28;;;;;;;;;0.75;0.75;;;;;;;;5067682;28;45570;-85
2023/10/20 06:16:53;;;;;;;;;1.50;1.50;;;;;;;;5068369;28;45377;-83
2023/10/20 06:19:19;;;;;;;;;2.50;2.00;;;;;;;;5066142;28;47487;-82
2023/10/20 06:21:45;;;;;;;;;2.50;2.25;;;;;;;;5074200;28;45406;-82
2023/10/20 06:24:10;;;;;;;;;2.00;2.00;;;;;;;;5086438;28;45401;-84
2023/10/20 06:26:35;;;;;;;;;3.00;2.00;;;;;;;;5084025;28;45346;-80
2023/10/20 06:29:01;;;;;;;;;4.00;3.00;;;;;;;;5091401;27;45631;-79
2023/10/20 06:34:09;;;;;;;;;2.25;2.25;;;;;;;;5102859;27;45193;-78
2023/10/20 06:36:35;;;;;;;;;4.00;2.75;;;;;;;;5101805;27;45437;-78
2023/10/20 06:39:03;;;;;;;;;4.25;3.25;;;;;;;;5077294;27;46191;-80
2023/10/20 06:41:28;;;;;;;;;4.75;3.25;;;;;;;;5073929;27;45287;-80
2023/10/20 06:43:54;;;;;;;;;4.00;4.00;;;;;;;;5071925;28;45194;-81
2023/10/20 06:46:21;;;;;;;;;5.00;5.00;;;;;;;;5071941;28;45187;-82
2023/10/20 06:48:47;;;;;;;;;4.00;4.00;;;;;;;;5073932;28;45385;-83
2023/10/20 06:51:13;;;;;;;;;3.67;3.67;;;;;;;;5071201;28;45387;-82
2023/10/20 06:53:38;;;;;;;;;3.00;3.00;;;;;;;;5075125;28;45551;-84
2023/10/20 06:56:05;;;;;;;;;4.50;3.00;;;;;;;;5079600;28;45293;-80
2023/10/20 06:58:30;;;;;;;;;6.33;4.33;;;;;;;;5080450;28;47589;-84
2023/10/20 07:00:56;;;;;;;;;4.00;3.33;;;;;;;;5079691;28;45641;-83
2023/10/20 07:03:21;;;;;;;;;2.75;2.75;;;;;;;;5081160;28;45377;-84
2023/10/20 07:05:47;;;;;;;;;2.75;2.25;;;;;;;;5080829;28;46145;-84
2023/10/20 07:08:13;;;;;;;;;5.50;4.00;;;;;;;;5079843;28;47397;-86
2023/10/20 07:10:38;;;;;;;;;4.50;4.25;;;;;;;;5080944;28;45229;-85
2023/10/20 07:13:06;;;;;;;;;1.75;1.75;;;;;;;;5080333;27;45246;-86
2023/10/20 07:15:33;;;;;;;;;4.75;4.00;;;;;;;;5084026;28;45508;-83
2023/10/20 07:17:59;;;;;;;;;2.25;2.25;;;;;;;;5082389;28;45389;-84
2023/10/20 07:20:24;;;;;;;;;5.00;4.00;;;;;;;;5083968;28;45328;-81
2023/10/20 07:22:50;;;;;;;;;3.75;3.75;;;;;;;;5083680;28;45282;-86
2023/10/20 07:25:15;;;;;;;;;5.00;5.00;;;;;;;;5082372;28;47197;-82
2023/10/20 07:27:40;;;;;;;;;2.75;2.75;;;;;;;;5062145;28;47087;-84
2023/10/20 07:30:06;;;;;;;;;4.33;4.33;;;;;;;;5074901;28;45354;-81
2023/10/20 07:32:31;;;;;;;;;3.00;3.00;;;;;;;;5075657;28;45297;-84
2023/10/20 07:34:56;;;;;;;;;4.33;3.00;;;;;;;;5070512;28;45430;-83
2023/10/20 07:37:22;;;;;;;;;3.67;3.33;;;;;;;;5070685;28;45464;-83
2023/10/20 07:39:47;;;;;;;;;4.00;3.33;;;;;;;;5072540;28;45310;-83
2023/10/20 07:42:12;;;;;;;;;2.00;2.00;;;;;;;;5075372;28;45421;-83
2023/10/20 07:44:40;;;;;;;;;5.00;5.00;;;;;;;;5071918;28;45386;-84
2023/10/20 07:47:06;;;;;;;;;4.00;4.00;;;;;;;;5074442;28;46097;-84
2023/10/20 07:49:31;;;;;;;;;4.50;4.50;;;;;;;;5071557;28;45607;-83
2023/10/20 07:51:56;;;;;;;;;6.67;6.67;;;;;;;;5070686;28;45466;-86
2023/10/20 07:54:21;;;;;;;;;4.00;4.00;;;;;;;;5070709;28;46655;-85
2023/10/20 07:56:47;;;;;;;;;4.00;3.00;;;;;;;;5072604;28;45464;-86
2023/10/20 07:59:12;;;;;;;;;6.00;6.00;;;;;;;;5071365;28;45648;-84
2023/10/20 08:01:37;;;;;;;;;4.50;4.25;;;;;;;;5081615;28;45275;-84
2023/10/20 08:04:02;;;;;;;;;4.00;2.00;;;;;;;;5081514;28;45283;-84
2023/10/20 08:06:28;;;;;;;;;2.00;2.00;;;;;;;;5081610;28;46697;-86
2023/10/20 08:08:53;;;;;;;;;5.25;2.00;;;;;;;;5075003;28;45424;-81
2023/10/20 08:11:18;;;;;;;;;3.25;2.00;;;;;;;;5071126;28;45439;-81
2023/10/20 08:13:50;;;;;;;;;3.00;2.00;;;;;;;;5071370;28;45436;-82
2023/10/20 08:16:15;;;;;;;;;3.67;3.67;;;;;;;;5068672;28;46554;-84
2023/10/20 08:18:43;;;;;;;;;2.75;2.75;;;;;;;;5057885;28;45457;-83
2023/10/20 08:21:16;;;;;;;;;4.67;4.67;;;;;;;;5071916;28;45686;-81
2023/10/20 08:23:41;;;;;;;;;4.00;4.00;;;;;;;;5066667;27;45377;-83
2023/10/20 08:26:13;;;;;;;;;2.00;2.00;;;;;;;;5061148;28;45307;-84
2023/10/20 08:28:41;;;;;;;;;4.25;4.25;;;;;;;;5075198;28;45475;-83
2023/10/20 08:31:10;;;;;;;;;3.50;3.00;;;;;;;;5063243;28;45299;-85
2023/10/20 08:33:35;;;;;;;;;3.00;3.00;;;;;;;;5078385;28;45942;-88
2023/10/20 08:36:15;;;;;;;;;2.75;2.25;;;;;;;;5070641;28;45464;-83
2023/10/20 08:38:45;;;;;;;;;3.00;3.00;;;;;;;;5068974;28;45507;-83
2023/10/20 08:41:10;;;;;;;;;2.25;1.75;;;;;;;;5070338;28;46777;-83
2023/10/20 08:43:41;;;;;;;;;2.75;2.25;;;;;;;;5072732;28;45555;-85
2023/10/20 08:46:09;;;;;;;;;5.00;4.00;;;;;;;;5072565;27;46814;-86
2023/10/20 08:48:46;;;;;;;;;4.75;4.75;;;;;;;;5061450;28;45401;-82
2023/10/20 08:51:16;;;;;;;;;5.00;4.33;;;;;;;;5075123;27;45466;-83
2023/10/20 08:53:42;;;;;;;;;3.00;3.00;;;;;;;;5078589;28;46097;-83
2023/10/20 08:56:08;;;;;;;;;4.00;4.00;;;;;;;;5064648;28;47412;-81
2023/10/20 08:58:34;;;;;;;;;5.00;5.00;;;;;;;;5073606;28;45737;-81
2023/10/20 09:01:00;;;;;;;;;5.00;4.25;;;;;;;;5067623;28;45469;-79
2023/10/20 09:03:45;;;;;;;;;5.50;4.00;;;;;;;;5064144;28;46903;-86
2023/10/20 09:06:14;;;;;;;;;3.75;3.75;;;;;;;;5057067;28;47331;-81
2023/10/20 09:08:39;;;;;;;;;3.75;3.75;;;;;;;;5057515;28;45398;-81
2023/10/20 09:11:08;;;;;;;;;2.50;2.50;;;;;;;;5058334;28;45376;-80
2023/10/20 09:13:35;;;;;;;;;3.75;3.75;;;;;;;;5057852;28;45809;-84
2023/10/20 09:16:01;;;;;;;;;2.00;2.00;;;;;;;;5076734;28;45543;-81
2023/10/20 09:18:26;;;;;;;;;2.25;2.25;;;;;;;;5079401;28;45518;-83
2023/10/20 09:20:52;;;;;;;;;2.25;2.25;;;;;;;;5067684;28;45388;-83
2023/10/20 09:23:17;;;;;;;;;1.25;1.25;;;;;;;;5066254;28;47249;-83
2023/10/20 09:25:43;;;;;;;;;3.00;2.50;;;;;;;;5068027;28;47203;-84
2023/10/20 09:28:08;;;;;;;;;2.00;2.00;;;;;;;;5075549;28;45423;-87
2023/10/20 09:30:34;;;;;;;;;2.00;0.25;;;;;;;;5059782;28;45359;-83
2023/10/20 09:32:59;;;;;;;;;2.00;2.00;;;;;;;;5063454;28;46457;-82
2023/10/20 09:35:25;;;;;;;;;2.00;2.00;;;;;;;;5059399;28;46244;-82
2023/10/20 09:37:55;;;;;;;;;1.75;1.75;;;;;;;;5083449;28;45362;-82
2023/10/20 09:40:21;;;;;;;;;1.75;1.75;;;;;;;;5085204;28;45349;-82
2023/10/20 09:43:10;;;;;;;;;1.50;1.50;;;;;;;;5080959;28;45470;-82
2023/10/20 09:45:37;;;;;;;;;2.25;1.75;;;;;;;;5077102;28;47644;-83
2023/10/20 09:48:09;;;;;;;;;2.00;2.00;;;;;;;;5067970;28;45215;-79
2023/10/20 09:50:35;;;;;;;;;1.25;1.25;;;;;;;;5071646;28;45300;-80
2023/10/20 09:53:01;;;;;;;;;2.00;2.00;;;;;;;;5088628;28;45499;-80
2023/10/20 09:55:26;;;;;;;;;1.25;1.25;;;;;;;;5084406;28;47180;-79
2023/10/20 09:57:51;;;;;;;;;2.25;2.25;;;;;;;;5079595;28;45457;-79
2023/10/20 10:00:27;;;;;;;;;2.00;2.00;;;;;;;;5083292;28;45427;-83
2023/10/20 10:02:56;;;;;;;;;2.00;1.75;;;;;;;;5085367;28;45201;-83
2023/10/20 10:05:22;;;;;;;;;1.50;1.50;;;;;;;;5078306;28;45315;-81
2023/10/20 10:07:47;;;;;;;;;3.00;3.00;;;;;;;;5083063;28;45398;-80
2023/10/20 10:10:19;;;;;;;;;2.00;2.00;;;;;;;;5074741;28;45591;-82
2023/10/20 10:12:55;;;;;;;;;4.00;4.00;;;;;;;;5061626;28;45958;-83
2023/10/20 10:15:22;;;;;;;;;6.00;4.50;;;;;;;;5073339;28;45369;-84
2023/10/20 10:17:48;;;;;;;;;4.00;4.00;;;;;;;;5086721;28;45349;-84
2023/10/20 10:20:27;;;;;;;;;3.00;3.00;;;;;;;;5087072;28;45231;-84
2023/10/20 10:22:59;;;;;;;;;4.00;4.00;;;;;;;;5084177;28;45553;-86
2023/10/20 10:25:32;;;;;;;;;4.75;2.75;;;;;;;;5084274;28;45481;-86
2023/10/20 10:28:06;;;;;;;;;5.25;5.25;;;;;;;;5084485;28;45234;-86
2023/10/20 10:30:32;;;;;;;;;6.50;6.50;;;;;;;;5104449;27;45303;-84
2023/10/20 10:32:58;;;;;;;;;4.75;4.75;;;;;;;;5107801;27;45710;-83
2023/10/20 10:35:23;;;;;;;;;2.00;2.00;;;;;;;;5104352;27;45388;-84
2023/10/20 10:37:48;;;;;;;;;3.25;3.25;;;;;;;;5102913;27;45326;-85
2023/10/20 10:40:15;;;;;;;;;3.00;2.25;;;;;;;;5102223;27;45258;-82
2023/10/20 10:42:44;;;;;;;;;3.75;3.00;;;;;;;;5101897;27;46936;-84
2023/10/20 10:45:22;;;;;;;;;4.50;2.50;;;;;;;;5103910;27;45423;-86
2023/10/20 10:47:49;;;;;;;;;4.50;4.50;;;;;;;;5103089;27;45345;-86
2023/10/20 10:50:16;;;;;;;;;4.75;3.50;;;;;;;;5082534;27;45494;-82
2023/10/20 10:52:44;;;;;;;;;4.50;4.50;;;;;;;;5081586;28;45357;-80
2023/10/20 10:55:09;;;;;;;;;3.50;3.00;;;;;;;;5082221;28;45364;-79
2023/10/20 10:57:35;;;;;;;;;4.00;4.00;;;;;;;;5082111;28;45325;-79
2023/10/20 11:00:00;;;;;;;;;2.00;2.00;;;;;;;;5082105;28;45267;-79
2023/10/20 11:02:25;;;;;;;;;2.00;2.00;;;;;;;;5082190;28;45238;-79
2023/10/20 11:04:51;;;;;;;;;3.00;3.00;;;;;;;;5081886;28;45350;-79
2023/10/20 11:07:16;;;;;;;;;3.75;3.25;;;;;;;;5080487;28;45681;-78
2023/10/20 11:10:00;;;;;;;;;5.25;5.25;;;;;;;;5080509;28;45331;-82
2023/10/20 11:12:26;;;;;;;;;6.50;5.00;;;;;;;;5071158;28;45879;-83
2023/10/20 11:14:56;;;;;;;;;7.75;5.75;;;;;;;;5070569;28;45426;-81
2023/10/20 11:17:21;;;;;;;;;3.75;3.00;;;;;;;;5061990;28;45473;-82
2023/10/20 11:19:46;;;;;;;;;5.50;5.50;;;;;;;;5066760;28;45528;-82
2023/10/20 11:22:18;;;;;;;;;5.75;5.00;;;;;;;;5061084;28;46177;-83
2023/10/20 11:24:50;;;;;;;;;3.75;3.75;;;;;;;;5060375;28;45657;-84
2023/10/20 11:27:15;;;;;;;;;4.50;4.25;;;;;;;;5060514;28;45493;-81
2023/10/20 11:29:49;;;;;;;;;5.00;4.50;;;;;;;;5082426;27;45482;-82
2023/10/20 11:32:14;;;;;;;;;5.00;4.75;;;;;;;;5099829;27;45459;-82
2023/10/20 11:34:39;;;;;;;;;3.00;3.00;;;;;;;;5080777;27;45504;-82
2023/10/20 11:37:05;;;;;;;;;4.75;4.00;;;;;;;;5070929;28;45662;-81
2023/10/20 11:39:32;;;;;;;;;5.50;5.50;;;;;;;;5069254;28;45433;-82
2023/10/20 11:41:57;;;;;;;;;4.50;4.50;;;;;;;;5074454;28;45457;-83
2023/10/20 11:44:26;;;;;;;;;7.25;6.25;;;;;;;;5079878;28;45809;-83
2023/10/20 11:46:59;;;;;;;;;5.00;4.25;;;;;;;;5079896;28;45500;-83
2023/10/20 11:49:24;;;;;;;;;6.75;6.75;;;;;;;;5080655;28;45476;-82
2023/10/20 11:51:56;;;;;;;;;6.00;6.00;;;;;;;;5080177;28;45313;-83
2023/10/20 11:54:24;;;;;;;;;7.25;5.50;;;;;;;;5080436;28;46150;-81
2023/10/20 11:56:52;;;;;;;;;8.00;7.00;;;;;;;;5070832;28;45363;-82
2023/10/20 11:59:17;;;;;;;;;5.50;5.25;;;;;;;;5066773;28;45407;-80
2023/10/20 12:01:43;;;;;;;;;5.75;5.75;;;;;;;;5069185;28;46338;-81
2023/10/20 12:04:11;;;;;;;;;7.75;6.00;;;;;;;;5070058;28;45970;-81
2023/10/20 12:06:36;;;;;;;;;7.25;6.75;;;;;;;;5077310;27;45388;-82
2023/10/20 12:09:10;;;;;;;;;5.00;5.00;;;;;;;;5069812;27;45764;-82
2023/10/20 12:11:36;;;;;;;;;6.50;4.75;;;;;;;;5077739;28;46061;-81
2023/10/20 12:14:02;;;;;;;;;5.00;5.00;;;;;;;;5082099;27;45330;-82
2023/10/20 12:16:27;;;;;;;;;3.50;3.50;;;;;;;;5078812;28;45400;-78
2023/10/20 12:18:52;;;;;;;;;4.75;4.75;;;;;;;;5068728;27;45311;-83
2023/10/20 12:21:18;;;;;;;;;2.25;2.25;;;;;;;;5079222;28;45607;-78
2023/10/20 12:23:43;;;;;;;;;3.00;3.00;;;;;;;;5075101;27;47840;-78
2023/10/20 12:26:08;;;;;;;;;2.50;2.50;;;;;;;;5068920;28;45316;-81
2023/10/20 12:28:33;;;;;;;;;4.00;4.00;;;;;;;;5071221;27;45456;-81
2023/10/20 12:31:01;;;;;;;;;5.00;5.00;;;;;;;;5071391;28;46362;-79
2023/10/20 12:33:27;;;;;;;;;5.00;5.00;;;;;;;;5067871;27;45438;-77
2023/10/20 12:35:55;;;;;;;;;7.00;5.25;;;;;;;;5071480;28;45328;-79
2023/10/20 12:38:21;;;;;;;;;4.75;4.25;;;;;;;;5079289;27;45381;-81
2023/10/20 12:40:46;;;;;;;;;5.25;3.00;;;;;;;;5080433;28;45299;-79
2023/10/20 12:43:12;;;;;;;;;3.00;3.00;;;;;;;;5080275;28;45657;-79
2023/10/20 12:45:38;;;;;;;;;2.25;1.50;;;;;;;;5079854;27;45543;-80
2023/10/20 12:48:03;;;;;;;;;2.00;2.00;;;;;;;;5078646;28;45576;-76
2023/10/20 12:50:32;;;;;;;;;4.25;2.00;;;;;;;;5092869;27;45448;-76
2023/10/20 12:52:58;;;;;;;;;2.75;2.75;;;;;;;;5063075;28;45303;-77
2023/10/20 12:55:24;;;;;;;;;2.00;2.00;;;;;;;;5066203;28;45349;-76
2023/10/20 12:57:49;;;;;;;;;2.00;2.00;;;;;;;;5068708;28;45465;-78
2023/10/20 13:00:15;;;;;;;;;2.00;2.00;;;;;;;;5070664;28;45460;-77
2023/10/20 13:02:43;;;;;;;;;1.00;1.00;;;;;;;;5068916;28;45565;-78
2023/10/20 13:05:09;;;;;;;;;1.00;1.00;;;;;;;;5076640;28;45335;-74
2023/10/20 13:07:34;;;;;;;;;1.00;1.00;;;;;;;;5066455;28;45314;-76
2023/10/20 13:10:01;;;;;;;;;2.00;2.00;;;;;;;;5069995;28;45350;-75
2023/10/20 13:12:26;;;;;;;;;4.75;4.00;;;;;;;;5068030;28;46501;-75
2023/10/20 13:14:51;;;;;;;;;3.00;3.00;;;;;;;;5065641;27;45539;-75
2023/10/20 13:17:17;;;;;;;;;3.50;2.75;;;;;;;;5064496;28;45330;-76
2023/10/20 13:19:42;;;;;;;;;2.00;2.00;;;;;;;;5075883;28;45287;-73
2023/10/20 13:22:07;;;;;;;;;2.25;1.25;;;;;;;;5063326;28;47752;-74
2023/10/20 13:24:32;;;;;;;;;2.00;2.00;;;;;;;;5059650;28;45295;-74
2023/10/20 13:26:59;;;;;;;;;1.75;1.00;;;;;;;;5063160;28;45260;-75
2023/10/20 13:29:25;;;;;;;;;3.00;3.00;;;;;;;;5078354;27;45341;-74
2023/10/20 13:31:50;;;;;;;;;4.25;3.75;;;;;;;;5068152;28;45436;-74
2023/10/20 13:34:15;;;;;;;;;2.50;2.50;;;;;;;;5074970;28;45957;-74
2023/10/20 13:36:41;;;;;;;;;2.75;2.75;;;;;;;;5079653;28;45251;-75
2023/10/20 13:39:07;;;;;;;;;3.00;3.00;;;;;;;;5067217;28;45392;-75
2023/10/20 13:41:33;;;;;;;;;3.00;2.00;;;;;;;;5062995;28;47301;-75
2023/10/20 13:43:58;;;;;;;;;3.00;3.00;;;;;;;;5072908;28;45268;-74
2023/10/20 13:46:23;;;;;;;;;1.50;1.50;;;;;;;;5066981;28;45575;-76
2023/10/20 13:48:48;;;;;;;;;2.75;2.75;;;;;;;;5062193;28;45596;-76
2023/10/20 13:51:13;;;;;;;;;3.25;2.50;;;;;;;;5064367;28;45536;-75
2023/10/20 13:53:39;;;;;;;;;3.75;3.75;;;;;;;;5056265;28;45703;-75
2023/10/20 13:56:04;;;;;;;;;4.00;4.00;;;;;;;;5063938;28;45414;-77
2023/10/20 13:58:29;;;;;;;;;4.00;3.00;;;;;;;;5068658;28;45449;-77
2023/10/20 14:00:54;;;;;;;;;2.00;2.00;;;;;;;;5066845;28;47057;-79
2023/10/20 14:03:20;;;;;;;;;2.00;2.00;;;;;;;;5066190;28;45261;-75
2023/10/20 14:05:54;;;;;;;;;2.00;2.00;;;;;;;;5064884;28;45381;-75
2023/10/20 14:08:19;;;;;;;;;1.00;1.00;;;;;;;;5070777;28;46366;-76
2023/10/20 14:10:44;;;;;;;;;2.25;2.00;;;;;;;;5069152;28;46228;-76
2023/10/20 14:13:10;;;;;;;;;2.00;2.00;;;;;;;;5070917;28;45325;-77
2023/10/20 14:15:35;;;;;;;;;3.00;3.00;;;;;;;;5063059;28;45726;-77
2023/10/20 14:18:01;;;;;;;;;2.25;2.00;;;;;;;;5058270;28;45598;-77
2023/10/20 14:20:26;;;;;;;;;2.00;2.00;;;;;;;;5058225;28;45318;-75
2023/10/20 14:22:52;;;;;;;;;2.25;0.50;;;;;;;;5061034;28;45334;-76
2023/10/20 14:25:17;;;;;;;;;2.00;1.00;;;;;;;;5074409;28;45339;-76
2023/10/20 14:27:42;;;;;;;;;0.50;0.50;;;;;;;;5067553;27;45960;-76
2023/10/20 14:30:07;;;;;;;;;1.75;1.00;;;;;;;;5074986;27;45440;-77
2023/10/20 14:32:33;;;;;;;;;2.50;2.50;;;;;;;;5081101;27;45842;-77
2023/10/20 14:34:58;;;;;;;;;3.00;2.50;;;;;;;;5067604;28;45829;-77
2023/10/20 14:37:23;;;;;;;;;2.00;1.00;;;;;;;;5072558;27;45449;-78
2023/10/20 14:39:48;;;;;;;;;1.00;1.00;;;;;;;;5064547;28;46743;-78
2023/10/20 14:42:14;;;;;;;;;1.00;1.00;;;;;;;;5072753;27;45434;-79
2023/10/20 14:44:39;;;;;;;;;2.00;2.00;;;;;;;;5070291;28;45630;-79
2023/10/20 14:47:04;;;;;;;;;1.50;1.50;;;;;;;;5070503;27;46286;-76
2023/10/20 14:49:31;;;;;;;;;2.00;0.50;;;;;;;;5078313;28;45445;-78
2023/10/20 14:51:57;;;;;;;;;2.25;1.50;;;;;;;;5072895;28;45453;-78
2023/10/20 14:54:22;;;;;;;;;2.00;2.00;;;;;;;;5061065;28;45336;-79
2023/10/20 14:56:47;;;;;;;;;2.00;2.00;;;;;;;;5075788;28;45397;-82
2023/10/20 14:59:13;;;;;;;;;1.75;1.75;;;;;;;;5072385;28;46508;-76
2023/10/20 15:01:38;;;;;;;;;3.50;1.00;;;;;;;;5079880;28;45495;-74
2023/10/20 15:04:03;;;;;;;;;2.00;2.00;;;;;;;;5081546;28;45619;-74
2023/10/20 15:06:29;;;;;;;;;1.75;1.00;;;;;;;;5079932;28;46178;-74
2023/10/20 15:08:55;;;;;;;;;1.25;1.25;;;;;;;;5072171;28;45280;-76
2023/10/20 15:11:20;;;;;;;;;1.00;1.00;;;;;;;;5061170;28;45479;-76
2023/10/20 15:13:45;;;;;;;;;1.00;1.00;;;;;;;;5059896;28;45399;-76